sensor_id;sensor_type;location;lat;lon;timestamp;P1;durP1;ratioP1;P2;durP2;ratioP2
21999;SDS011;11164;48.818;2.322;2022-08-19T00:02:22;11.23;;;8.38;;
21999;SDS011;11164;48.818;2.322;2022-08-19T00:04:47;14.55;;;8.93;;
21999;SDS011;11164;48.818;2.322;2022-08-19T00:07:17;11.57;;;9.07;;
21999;SDS011;11164;48.818;2.322;2022-08-19T00:09:42;11.27;;;8.18;;
21999;SDS011;11164;48.818;2.322;2022-08-19T00:12:08;11.40;;;8.30;;
21999;SDS011;11164;48.818;2.322;2022-08-19T00:14:33;10.77;;;8.30;;
21999;SDS011;11164;48.818;2.322;2022-08-19T00:16:59;11.10;;;8.07;;
21999;SDS011;11164;48.818;2.322;2022-08-19T00:19:26;11.57;;;8.25;;
21999;SDS011;11164;48.818;2.322;2022-08-19T00:21:51;11.55;;;8.05;;
21999;SDS011;11164;48.818;2.322;2022-08-19T00:24:17;12.27;;;8.00;;
21999;SDS011;11164;48.818;2.322;2022-08-19T00:26:43;11.85;;;8.02;;
21999;SDS011;11164;48.818;2.322;2022-08-19T00:29:11;10.90;;;7.53;;
21999;SDS011;11164;48.818;2.322;2022-08-19T00:31:38;10.02;;;7.40;;
21999;SDS011;11164;48.818;2.322;2022-08-19T00:34:04;10.60;;;7.13;;
21999;SDS011;11164;48.818;2.322;2022-08-19T00:36:30;9.73;;;7.65;;
21999;SDS011;11164;48.818;2.322;2022-08-19T00:38:58;9.95;;;7.20;;
21999;SDS011;11164;48.818;2.322;2022-08-19T00:41:23;13.65;;;7.35;;
21999;SDS011;11164;48.818;2.322;2022-08-19T00:44:03;10.63;;;7.70;;
21999;SDS011;11164;48.818;2.322;2022-08-19T00:46:36;10.57;;;7.63;;
21999;SDS011;11164;48.818;2.322;2022-08-19T00:49:06;12.15;;;7.40;;
21999;SDS011;11164;48.818;2.322;2022-08-19T00:51:39;9.85;;;7.70;;
21999;SDS011;11164;48.818;2.322;2022-08-19T00:54:07;11.73;;;7.88;;
21999;SDS011;11164;48.818;2.322;2022-08-19T00:56:34;12.57;;;7.68;;
21999;SDS011;11164;48.818;2.322;2022-08-19T00:59:00;12.82;;;7.90;;
21999;SDS011;11164;48.818;2.322;2022-08-19T01:01:27;10.13;;;7.60;;
21999;SDS011;11164;48.818;2.322;2022-08-19T01:03:53;10.88;;;7.85;;
21999;SDS011;11164;48.818;2.322;2022-08-19T01:06:18;12.63;;;8.05;;
21999;SDS011;11164;48.818;2.322;2022-08-19T01:08:44;10.38;;;7.65;;
21999;SDS011;11164;48.818;2.322;2022-08-19T01:11:09;10.13;;;7.60;;
21999;SDS011;11164;48.818;2.322;2022-08-19T01:13:35;10.15;;;7.82;;
21999;SDS011;11164;48.818;2.322;2022-08-19T01:16:05;12.98;;;8.52;;
21999;SDS011;11164;48.818;2.322;2022-08-19T01:18:35;10.00;;;7.68;;
21999;SDS011;11164;48.818;2.322;2022-08-19T01:21:12;11.55;;;8.02;;
21999;SDS011;11164;48.818;2.322;2022-08-19T01:23:45;10.52;;;7.72;;
21999;SDS011;11164;48.818;2.322;2022-08-19T01:26:12;12.82;;;8.18;;
21999;SDS011;11164;48.818;2.322;2022-08-19T01:28:40;12.27;;;8.13;;
21999;SDS011;11164;48.818;2.322;2022-08-19T01:31:07;10.73;;;8.00;;
21999;SDS011;11164;48.818;2.322;2022-08-19T01:33:36;10.50;;;7.75;;
21999;SDS011;11164;48.818;2.322;2022-08-19T01:36:12;10.25;;;8.20;;
21999;SDS011;11164;48.818;2.322;2022-08-19T01:38:41;10.55;;;7.95;;
21999;SDS011;11164;48.818;2.322;2022-08-19T01:41:08;10.70;;;7.60;;
21999;SDS011;11164;48.818;2.322;2022-08-19T01:43:35;10.40;;;7.85;;
21999;SDS011;11164;48.818;2.322;2022-08-19T01:46:01;12.35;;;7.68;;
21999;SDS011;11164;48.818;2.322;2022-08-19T01:48:28;10.68;;;7.55;;
21999;SDS011;11164;48.818;2.322;2022-08-19T01:50:58;12.18;;;8.13;;
21999;SDS011;11164;48.818;2.322;2022-08-19T01:53:23;11.20;;;7.20;;
21999;SDS011;11164;48.818;2.322;2022-08-19T01:55:49;9.95;;;7.72;;
21999;SDS011;11164;48.818;2.322;2022-08-19T01:58:17;11.13;;;7.57;;
21999;SDS011;11164;48.818;2.322;2022-08-19T02:00:45;10.95;;;7.85;;
21999;SDS011;11164;48.818;2.322;2022-08-19T02:03:11;9.15;;;7.57;;
21999;SDS011;11164;48.818;2.322;2022-08-19T02:05:38;10.48;;;7.30;;
21999;SDS011;11164;48.818;2.322;2022-08-19T02:08:04;11.15;;;8.00;;
21999;SDS011;11164;48.818;2.322;2022-08-19T02:10:30;10.48;;;8.00;;
21999;SDS011;11164;48.818;2.322;2022-08-19T02:12:56;12.15;;;7.90;;
21999;SDS011;11164;48.818;2.322;2022-08-19T02:15:22;14.95;;;8.63;;
21999;SDS011;11164;48.818;2.322;2022-08-19T02:17:48;12.43;;;8.50;;
21999;SDS011;11164;48.818;2.322;2022-08-19T02:20:13;13.13;;;8.18;;
21999;SDS011;11164;48.818;2.322;2022-08-19T02:22:42;14.07;;;8.45;;
21999;SDS011;11164;48.818;2.322;2022-08-19T02:25:12;14.70;;;8.75;;
21999;SDS011;11164;48.818;2.322;2022-08-19T02:27:39;13.82;;;8.15;;
21999;SDS011;11164;48.818;2.322;2022-08-19T02:30:07;13.60;;;7.80;;
21999;SDS011;11164;48.818;2.322;2022-08-19T02:32:34;12.50;;;7.68;;
21999;SDS011;11164;48.818;2.322;2022-08-19T02:35:00;10.90;;;8.13;;
21999;SDS011;11164;48.818;2.322;2022-08-19T02:37:25;12.32;;;8.50;;
21999;SDS011;11164;48.818;2.322;2022-08-19T02:40:09;10.90;;;8.02;;
21999;SDS011;11164;48.818;2.322;2022-08-19T02:42:35;13.52;;;8.55;;
21999;SDS011;11164;48.818;2.322;2022-08-19T02:45:01;12.10;;;7.65;;
21999;SDS011;11164;48.818;2.322;2022-08-19T02:47:26;10.02;;;8.38;;
21999;SDS011;11164;48.818;2.322;2022-08-19T02:49:51;12.98;;;8.70;;
21999;SDS011;11164;48.818;2.322;2022-08-19T02:52:17;11.80;;;8.25;;
21999;SDS011;11164;48.818;2.322;2022-08-19T02:54:42;13.65;;;8.63;;
21999;SDS011;11164;48.818;2.322;2022-08-19T02:57:08;11.85;;;8.20;;
21999;SDS011;11164;48.818;2.322;2022-08-19T02:59:34;11.05;;;7.93;;
21999;SDS011;11164;48.818;2.322;2022-08-19T03:01:59;12.00;;;7.68;;
21999;SDS011;11164;48.818;2.322;2022-08-19T03:04:24;11.20;;;7.55;;
21999;SDS011;11164;48.818;2.322;2022-08-19T03:06:50;10.88;;;7.70;;
21999;SDS011;11164;48.818;2.322;2022-08-19T03:09:16;13.98;;;7.97;;
21999;SDS011;11164;48.818;2.322;2022-08-19T03:11:45;14.13;;;7.88;;
21999;SDS011;11164;48.818;2.322;2022-08-19T03:14:11;12.35;;;8.43;;
21999;SDS011;11164;48.818;2.322;2022-08-19T03:16:48;12.10;;;8.32;;
21999;SDS011;11164;48.818;2.322;2022-08-19T03:19:15;16.33;;;8.80;;
21999;SDS011;11164;48.818;2.322;2022-08-19T03:21:43;15.70;;;8.77;;
21999;SDS011;11164;48.818;2.322;2022-08-19T03:24:12;14.88;;;8.82;;
21999;SDS011;11164;48.818;2.322;2022-08-19T03:26:39;13.20;;;8.65;;
21999;SDS011;11164;48.818;2.322;2022-08-19T03:29:06;15.18;;;8.88;;
21999;SDS011;11164;48.818;2.322;2022-08-19T03:31:35;15.20;;;8.30;;
21999;SDS011;11164;48.818;2.322;2022-08-19T03:34:01;13.18;;;8.73;;
21999;SDS011;11164;48.818;2.322;2022-08-19T03:36:26;14.10;;;8.45;;
21999;SDS011;11164;48.818;2.322;2022-08-19T03:38:53;12.00;;;7.80;;
21999;SDS011;11164;48.818;2.322;2022-08-19T03:41:22;12.68;;;7.85;;
21999;SDS011;11164;48.818;2.322;2022-08-19T03:43:53;12.40;;;7.93;;
21999;SDS011;11164;48.818;2.322;2022-08-19T03:46:20;12.45;;;7.65;;
21999;SDS011;11164;48.818;2.322;2022-08-19T03:48:49;11.68;;;7.43;;
21999;SDS011;11164;48.818;2.322;2022-08-19T03:51:20;11.68;;;7.55;;
21999;SDS011;11164;48.818;2.322;2022-08-19T03:53:49;13.88;;;7.70;;
21999;SDS011;11164;48.818;2.322;2022-08-19T03:56:16;14.25;;;8.45;;
21999;SDS011;11164;48.818;2.322;2022-08-19T03:58:42;13.75;;;7.82;;
21999;SDS011;11164;48.818;2.322;2022-08-19T04:01:09;12.70;;;7.93;;
21999;SDS011;11164;48.818;2.322;2022-08-19T04:06:09;11.85;;;7.35;;
21999;SDS011;11164;48.818;2.322;2022-08-19T04:08:47;10.20;;;7.50;;
21999;SDS011;11164;48.818;2.322;2022-08-19T04:11:16;13.30;;;8.20;;
21999;SDS011;11164;48.818;2.322;2022-08-19T04:13:42;11.35;;;7.82;;
21999;SDS011;11164;48.818;2.322;2022-08-19T04:16:09;13.00;;;8.07;;
21999;SDS011;11164;48.818;2.322;2022-08-19T04:18:35;13.73;;;7.88;;
21999;SDS011;11164;48.818;2.322;2022-08-19T04:21:03;13.07;;;7.75;;
21999;SDS011;11164;48.818;2.322;2022-08-19T04:23:29;11.40;;;7.03;;
21999;SDS011;11164;48.818;2.322;2022-08-19T04:25:55;10.45;;;6.88;;
21999;SDS011;11164;48.818;2.322;2022-08-19T04:28:21;11.55;;;6.28;;
21999;SDS011;11164;48.818;2.322;2022-08-19T04:30:48;10.38;;;6.10;;
21999;SDS011;11164;48.818;2.322;2022-08-19T04:33:16;10.15;;;6.43;;
21999;SDS011;11164;48.818;2.322;2022-08-19T04:35:50;9.18;;;6.45;;
21999;SDS011;11164;48.818;2.322;2022-08-19T04:38:18;9.60;;;6.00;;
21999;SDS011;11164;48.818;2.322;2022-08-19T04:40:48;10.27;;;5.80;;
21999;SDS011;11164;48.818;2.322;2022-08-19T04:43:35;10.90;;;5.47;;
21999;SDS011;11164;48.818;2.322;2022-08-19T04:46:05;8.57;;;5.53;;
21999;SDS011;11164;48.818;2.322;2022-08-19T04:48:36;8.63;;;5.55;;
21999;SDS011;11164;48.818;2.322;2022-08-19T04:51:05;9.15;;;5.47;;
21999;SDS011;11164;48.818;2.322;2022-08-19T04:53:33;10.43;;;5.82;;
21999;SDS011;11164;48.818;2.322;2022-08-19T04:56:02;10.50;;;5.82;;
21999;SDS011;11164;48.818;2.322;2022-08-19T04:58:32;10.40;;;5.57;;
21999;SDS011;11164;48.818;2.322;2022-08-19T05:00:57;7.65;;;4.95;;
21999;SDS011;11164;48.818;2.322;2022-08-19T05:03:25;14.10;;;4.90;;
21999;SDS011;11164;48.818;2.322;2022-08-19T05:05:50;7.35;;;4.90;;
21999;SDS011;11164;48.818;2.322;2022-08-19T05:08:18;7.07;;;4.78;;
21999;SDS011;11164;48.818;2.322;2022-08-19T05:10:46;7.20;;;4.95;;
21999;SDS011;11164;48.818;2.322;2022-08-19T05:13:14;9.95;;;5.07;;
21999;SDS011;11164;48.818;2.322;2022-08-19T05:15:40;7.28;;;4.70;;
21999;SDS011;11164;48.818;2.322;2022-08-19T05:18:07;8.38;;;4.85;;
21999;SDS011;11164;48.818;2.322;2022-08-19T05:20:51;8.68;;;5.13;;
21999;SDS011;11164;48.818;2.322;2022-08-19T05:23:35;7.97;;;5.15;;
21999;SDS011;11164;48.818;2.322;2022-08-19T05:26:00;6.57;;;4.25;;
21999;SDS011;11164;48.818;2.322;2022-08-19T05:28:26;8.50;;;4.75;;
21999;SDS011;11164;48.818;2.322;2022-08-19T05:30:52;7.50;;;4.80;;
21999;SDS011;11164;48.818;2.322;2022-08-19T05:33:20;8.85;;;4.40;;
21999;SDS011;11164;48.818;2.322;2022-08-19T05:35:47;7.10;;;4.20;;
21999;SDS011;11164;48.818;2.322;2022-08-19T05:38:18;6.82;;;4.20;;
21999;SDS011;11164;48.818;2.322;2022-08-19T05:40:44;7.25;;;4.32;;
21999;SDS011;11164;48.818;2.322;2022-08-19T05:43:14;7.63;;;3.97;;
21999;SDS011;11164;48.818;2.322;2022-08-19T05:45:41;7.60;;;4.35;;
21999;SDS011;11164;48.818;2.322;2022-08-19T05:48:08;7.25;;;4.45;;
21999;SDS011;11164;48.818;2.322;2022-08-19T05:50:37;7.68;;;3.95;;
21999;SDS011;11164;48.818;2.322;2022-08-19T05:53:04;6.35;;;4.45;;
21999;SDS011;11164;48.818;2.322;2022-08-19T05:55:30;7.65;;;4.40;;
21999;SDS011;11164;48.818;2.322;2022-08-19T05:57:55;8.43;;;4.40;;
21999;SDS011;11164;48.818;2.322;2022-08-19T06:00:21;6.60;;;4.32;;
21999;SDS011;11164;48.818;2.322;2022-08-19T06:02:46;7.22;;;4.78;;
21999;SDS011;11164;48.818;2.322;2022-08-19T06:05:11;5.30;;;3.78;;
21999;SDS011;11164;48.818;2.322;2022-08-19T06:07:37;6.78;;;3.63;;
21999;SDS011;11164;48.818;2.322;2022-08-19T06:10:04;7.20;;;4.28;;
21999;SDS011;11164;48.818;2.322;2022-08-19T06:12:32;7.15;;;3.70;;
21999;SDS011;11164;48.818;2.322;2022-08-19T06:15:00;5.85;;;3.63;;
21999;SDS011;11164;48.818;2.322;2022-08-19T06:17:31;5.35;;;3.30;;
21999;SDS011;11164;48.818;2.322;2022-08-19T06:19:56;5.15;;;3.22;;
21999;SDS011;11164;48.818;2.322;2022-08-19T06:22:22;7.38;;;3.42;;
21999;SDS011;11164;48.818;2.322;2022-08-19T06:24:47;6.38;;;3.20;;
21999;SDS011;11164;48.818;2.322;2022-08-19T06:27:13;8.13;;;3.33;;
21999;SDS011;11164;48.818;2.322;2022-08-19T06:29:38;5.07;;;3.08;;
21999;SDS011;11164;48.818;2.322;2022-08-19T06:32:04;4.85;;;3.13;;
21999;SDS011;11164;48.818;2.322;2022-08-19T06:34:30;3.78;;;2.45;;
21999;SDS011;11164;48.818;2.322;2022-08-19T06:36:59;5.10;;;2.70;;
21999;SDS011;11164;48.818;2.322;2022-08-19T06:39:27;4.00;;;2.28;;
21999;SDS011;11164;48.818;2.322;2022-08-19T06:41:56;7.07;;;2.78;;
21999;SDS011;11164;48.818;2.322;2022-08-19T06:44:24;5.80;;;2.40;;
21999;SDS011;11164;48.818;2.322;2022-08-19T06:46:52;5.45;;;2.63;;
21999;SDS011;11164;48.818;2.322;2022-08-19T06:49:18;4.07;;;2.15;;
21999;SDS011;11164;48.818;2.322;2022-08-19T06:51:44;5.63;;;2.38;;
21999;SDS011;11164;48.818;2.322;2022-08-19T06:54:15;5.95;;;2.20;;
21999;SDS011;11164;48.818;2.322;2022-08-19T06:56:41;4.75;;;2.58;;
21999;SDS011;11164;48.818;2.322;2022-08-19T06:59:09;4.75;;;2.28;;
21999;SDS011;11164;48.818;2.322;2022-08-19T07:01:37;5.32;;;2.70;;
21999;SDS011;11164;48.818;2.322;2022-08-19T07:04:06;4.60;;;2.42;;
21999;SDS011;11164;48.818;2.322;2022-08-19T07:06:34;4.60;;;2.60;;
21999;SDS011;11164;48.818;2.322;2022-08-19T07:09:02;4.25;;;2.08;;
21999;SDS011;11164;48.818;2.322;2022-08-19T07:11:29;6.07;;;2.50;;
21999;SDS011;11164;48.818;2.322;2022-08-19T07:13:57;5.78;;;2.13;;
21999;SDS011;11164;48.818;2.322;2022-08-19T07:16:23;3.70;;;2.20;;
21999;SDS011;11164;48.818;2.322;2022-08-19T07:18:49;3.85;;;2.10;;
21999;SDS011;11164;48.818;2.322;2022-08-19T07:21:17;5.03;;;1.95;;
21999;SDS011;11164;48.818;2.322;2022-08-19T07:23:46;3.88;;;2.08;;
21999;SDS011;11164;48.818;2.322;2022-08-19T07:26:13;5.53;;;2.10;;
21999;SDS011;11164;48.818;2.322;2022-08-19T07:28:40;4.53;;;2.20;;
21999;SDS011;11164;48.818;2.322;2022-08-19T07:31:11;5.57;;;2.30;;
21999;SDS011;11164;48.818;2.322;2022-08-19T07:33:39;4.00;;;2.05;;
21999;SDS011;11164;48.818;2.322;2022-08-19T07:36:08;4.47;;;2.53;;
21999;SDS011;11164;48.818;2.322;2022-08-19T07:38:39;5.30;;;2.40;;
21999;SDS011;11164;48.818;2.322;2022-08-19T07:41:09;3.75;;;1.75;;
21999;SDS011;11164;48.818;2.322;2022-08-19T07:43:36;3.63;;;2.10;;
21999;SDS011;11164;48.818;2.322;2022-08-19T07:46:01;3.75;;;2.05;;
21999;SDS011;11164;48.818;2.322;2022-08-19T07:48:27;5.20;;;1.85;;
21999;SDS011;11164;48.818;2.322;2022-08-19T07:50:58;3.78;;;1.98;;
21999;SDS011;11164;48.818;2.322;2022-08-19T07:53:27;5.17;;;2.00;;
21999;SDS011;11164;48.818;2.322;2022-08-19T07:55:54;5.82;;;1.95;;
21999;SDS011;11164;48.818;2.322;2022-08-19T07:58:20;6.13;;;3.00;;
21999;SDS011;11164;48.818;2.322;2022-08-19T08:00:48;6.90;;;2.20;;
21999;SDS011;11164;48.818;2.322;2022-08-19T08:03:17;4.00;;;2.10;;
21999;SDS011;11164;48.818;2.322;2022-08-19T08:05:44;4.05;;;1.77;;
21999;SDS011;11164;48.818;2.322;2022-08-19T08:08:30;6.43;;;2.22;;
21999;SDS011;11164;48.818;2.322;2022-08-19T08:11:04;5.63;;;2.10;;
21999;SDS011;11164;48.818;2.322;2022-08-19T08:13:30;4.40;;;2.03;;
21999;SDS011;11164;48.818;2.322;2022-08-19T08:15:57;6.30;;;2.28;;
21999;SDS011;11164;48.818;2.322;2022-08-19T08:18:23;8.23;;;5.22;;
21999;SDS011;11164;48.818;2.322;2022-08-19T08:20:49;4.78;;;2.10;;
21999;SDS011;11164;48.818;2.322;2022-08-19T08:23:14;3.85;;;1.70;;
21999;SDS011;11164;48.818;2.322;2022-08-19T08:25:51;7.00;;;1.77;;
21999;SDS011;11164;48.818;2.322;2022-08-19T08:28:18;5.07;;;1.90;;
21999;SDS011;11164;48.818;2.322;2022-08-19T08:30:45;4.78;;;1.80;;
21999;SDS011;11164;48.818;2.322;2022-08-19T08:33:12;4.10;;;2.10;;
21999;SDS011;11164;48.818;2.322;2022-08-19T08:35:39;4.00;;;1.73;;
21999;SDS011;11164;48.818;2.322;2022-08-19T08:38:10;3.65;;;1.70;;
21999;SDS011;11164;48.818;2.322;2022-08-19T08:40:46;3.88;;;1.88;;
21999;SDS011;11164;48.818;2.322;2022-08-19T08:43:25;4.03;;;1.80;;
21999;SDS011;11164;48.818;2.322;2022-08-19T08:46:05;4.67;;;1.80;;
21999;SDS011;11164;48.818;2.322;2022-08-19T08:51:27;3.80;;;1.95;;
21999;SDS011;11164;48.818;2.322;2022-08-19T08:53:58;5.53;;;2.10;;
21999;SDS011;11164;48.818;2.322;2022-08-19T08:56:24;7.90;;;2.60;;
21999;SDS011;11164;48.818;2.322;2022-08-19T08:58:54;5.32;;;1.90;;
21999;SDS011;11164;48.818;2.322;2022-08-19T09:01:24;5.60;;;2.22;;
21999;SDS011;11164;48.818;2.322;2022-08-19T09:03:50;5.90;;;2.15;;
21999;SDS011;11164;48.818;2.322;2022-08-19T09:09:03;6.53;;;2.00;;
21999;SDS011;11164;48.818;2.322;2022-08-19T09:16:56;5.00;;;1.77;;
21999;SDS011;11164;48.818;2.322;2022-08-19T09:19:23;4.63;;;2.03;;
21999;SDS011;11164;48.818;2.322;2022-08-19T09:21:48;23.92;;;18.27;;
21999;SDS011;11164;48.818;2.322;2022-08-19T09:24:15;4.57;;;1.80;;
21999;SDS011;11164;48.818;2.322;2022-08-19T09:26:40;7.82;;;1.85;;
21999;SDS011;11164;48.818;2.322;2022-08-19T09:29:09;6.53;;;1.65;;
21999;SDS011;11164;48.818;2.322;2022-08-19T09:31:35;3.90;;;1.80;;
21999;SDS011;11164;48.818;2.322;2022-08-19T09:34:01;3.75;;;1.90;;
21999;SDS011;11164;48.818;2.322;2022-08-19T09:36:29;3.58;;;1.83;;
21999;SDS011;11164;48.818;2.322;2022-08-19T09:39:02;4.45;;;1.70;;
21999;SDS011;11164;48.818;2.322;2022-08-19T09:41:29;4.82;;;1.65;;
21999;SDS011;11164;48.818;2.322;2022-08-19T09:43:55;5.00;;;2.25;;
21999;SDS011;11164;48.818;2.322;2022-08-19T09:46:22;3.47;;;1.60;;
21999;SDS011;11164;48.818;2.322;2022-08-19T09:48:50;4.32;;;1.85;;
21999;SDS011;11164;48.818;2.322;2022-08-19T09:51:18;5.10;;;1.73;;
21999;SDS011;11164;48.818;2.322;2022-08-19T09:53:46;4.47;;;1.90;;
21999;SDS011;11164;48.818;2.322;2022-08-19T09:56:15;3.97;;;1.92;;
21999;SDS011;11164;48.818;2.322;2022-08-19T09:58:41;5.60;;;1.83;;
21999;SDS011;11164;48.818;2.322;2022-08-19T10:01:07;6.53;;;2.22;;
21999;SDS011;11164;48.818;2.322;2022-08-19T10:03:33;4.80;;;1.70;;
21999;SDS011;11164;48.818;2.322;2022-08-19T10:06:01;6.15;;;1.80;;
21999;SDS011;11164;48.818;2.322;2022-08-19T10:08:29;4.57;;;1.80;;
21999;SDS011;11164;48.818;2.322;2022-08-19T10:10:57;5.30;;;1.50;;
21999;SDS011;11164;48.818;2.322;2022-08-19T10:13:24;5.25;;;2.15;;
21999;SDS011;11164;48.818;2.322;2022-08-19T10:15:52;4.93;;;1.70;;
21999;SDS011;11164;48.818;2.322;2022-08-19T10:18:21;5.15;;;2.10;;
21999;SDS011;11164;48.818;2.322;2022-08-19T10:20:48;4.43;;;1.90;;
21999;SDS011;11164;48.818;2.322;2022-08-19T10:23:15;4.70;;;1.90;;
21999;SDS011;11164;48.818;2.322;2022-08-19T10:25:42;4.57;;;1.52;;
21999;SDS011;11164;48.818;2.322;2022-08-19T10:28:08;3.67;;;1.40;;
21999;SDS011;11164;48.818;2.322;2022-08-19T10:30:36;3.00;;;1.38;;
21999;SDS011;11164;48.818;2.322;2022-08-19T10:33:05;4.18;;;1.55;;
21999;SDS011;11164;48.818;2.322;2022-08-19T10:35:31;3.78;;;1.08;;
21999;SDS011;11164;48.818;2.322;2022-08-19T10:37:57;4.95;;;1.50;;
21999;SDS011;11164;48.818;2.322;2022-08-19T10:40:24;2.72;;;1.20;;
21999;SDS011;11164;48.818;2.322;2022-08-19T10:42:51;4.05;;;1.30;;
21999;SDS011;11164;48.818;2.322;2022-08-19T10:45:17;5.38;;;1.92;;
21999;SDS011;11164;48.818;2.322;2022-08-19T10:47:43;6.70;;;2.88;;
21999;SDS011;11164;48.818;2.322;2022-08-19T10:50:08;4.75;;;1.27;;
21999;SDS011;11164;48.818;2.322;2022-08-19T10:55:19;6.97;;;3.83;;
21999;SDS011;11164;48.818;2.322;2022-08-19T10:58:16;5.22;;;3.22;;
21999;SDS011;11164;48.818;2.322;2022-08-19T11:00:51;3.35;;;1.60;;
21999;SDS011;11164;48.818;2.322;2022-08-19T11:03:20;4.40;;;1.33;;
21999;SDS011;11164;48.818;2.322;2022-08-19T11:05:46;3.10;;;1.15;;
21999;SDS011;11164;48.818;2.322;2022-08-19T11:08:13;4.03;;;1.80;;
21999;SDS011;11164;48.818;2.322;2022-08-19T11:10:42;5.28;;;1.70;;
21999;SDS011;11164;48.818;2.322;2022-08-19T11:13:07;2.92;;;1.70;;
21999;SDS011;11164;48.818;2.322;2022-08-19T11:15:33;3.65;;;1.38;;
21999;SDS011;11164;48.818;2.322;2022-08-19T11:17:58;3.15;;;1.30;;
21999;SDS011;11164;48.818;2.322;2022-08-19T11:20:24;4.95;;;1.63;;
21999;SDS011;11164;48.818;2.322;2022-08-19T11:22:51;3.40;;;1.35;;
21999;SDS011;11164;48.818;2.322;2022-08-19T11:25:18;2.72;;;1.30;;
21999;SDS011;11164;48.818;2.322;2022-08-19T11:27:44;3.90;;;1.40;;
21999;SDS011;11164;48.818;2.322;2022-08-19T11:30:11;4.68;;;1.73;;
21999;SDS011;11164;48.818;2.322;2022-08-19T11:32:38;3.50;;;1.23;;
21999;SDS011;11164;48.818;2.322;2022-08-19T11:35:04;3.70;;;1.58;;
21999;SDS011;11164;48.818;2.322;2022-08-19T11:37:29;5.72;;;1.50;;
21999;SDS011;11164;48.818;2.322;2022-08-19T11:39:55;3.00;;;1.52;;
21999;SDS011;11164;48.818;2.322;2022-08-19T11:42:20;4.50;;;2.40;;
21999;SDS011;11164;48.818;2.322;2022-08-19T11:47:29;3.95;;;1.63;;
21999;SDS011;11164;48.818;2.322;2022-08-19T11:49:56;3.05;;;1.55;;
21999;SDS011;11164;48.818;2.322;2022-08-19T11:52:22;4.18;;;1.42;;
21999;SDS011;11164;48.818;2.322;2022-08-19T11:54:47;7.97;;;4.30;;
21999;SDS011;11164;48.818;2.322;2022-08-19T11:57:13;3.70;;;1.50;;
21999;SDS011;11164;48.818;2.322;2022-08-19T11:59:41;3.83;;;1.63;;
21999;SDS011;11164;48.818;2.322;2022-08-19T12:02:07;5.90;;;1.80;;
21999;SDS011;11164;48.818;2.322;2022-08-19T12:04:32;6.13;;;1.92;;
21999;SDS011;11164;48.818;2.322;2022-08-19T12:06:58;4.05;;;1.75;;
21999;SDS011;11164;48.818;2.322;2022-08-19T12:09:24;3.70;;;1.63;;
21999;SDS011;11164;48.818;2.322;2022-08-19T12:11:49;4.28;;;1.75;;
21999;SDS011;11164;48.818;2.322;2022-08-19T12:14:15;4.20;;;1.95;;
21999;SDS011;11164;48.818;2.322;2022-08-19T12:16:42;4.70;;;1.60;;
21999;SDS011;11164;48.818;2.322;2022-08-19T12:19:10;4.00;;;1.88;;
21999;SDS011;11164;48.818;2.322;2022-08-19T12:21:36;3.92;;;2.15;;
21999;SDS011;11164;48.818;2.322;2022-08-19T12:24:03;3.88;;;2.05;;
21999;SDS011;11164;48.818;2.322;2022-08-19T12:26:30;3.28;;;1.70;;
21999;SDS011;11164;48.818;2.322;2022-08-19T12:28:56;4.68;;;1.98;;
21999;SDS011;11164;48.818;2.322;2022-08-19T12:31:24;8.05;;;2.22;;
21999;SDS011;11164;48.818;2.322;2022-08-19T12:33:50;4.95;;;1.98;;
21999;SDS011;11164;48.818;2.322;2022-08-19T12:36:17;5.03;;;2.05;;
21999;SDS011;11164;48.818;2.322;2022-08-19T12:38:42;6.68;;;2.15;;
21999;SDS011;11164;48.818;2.322;2022-08-19T12:41:10;5.50;;;2.13;;
21999;SDS011;11164;48.818;2.322;2022-08-19T12:43:37;5.65;;;2.08;;
21999;SDS011;11164;48.818;2.322;2022-08-19T12:46:07;15.63;;;9.93;;
21999;SDS011;11164;48.818;2.322;2022-08-19T12:48:32;6.15;;;3.17;;
21999;SDS011;11164;48.818;2.322;2022-08-19T12:50:58;3.70;;;2.00;;
21999;SDS011;11164;48.818;2.322;2022-08-19T12:53:24;4.13;;;1.92;;
21999;SDS011;11164;48.818;2.322;2022-08-19T12:55:56;4.82;;;1.77;;
21999;SDS011;11164;48.818;2.322;2022-08-19T12:58:25;6.60;;;1.88;;
21999;SDS011;11164;48.818;2.322;2022-08-19T13:00:50;3.83;;;1.80;;
21999;SDS011;11164;48.818;2.322;2022-08-19T13:03:16;3.80;;;1.80;;
21999;SDS011;11164;48.818;2.322;2022-08-19T13:05:41;5.28;;;1.80;;
21999;SDS011;11164;48.818;2.322;2022-08-19T13:08:07;7.13;;;2.15;;
21999;SDS011;11164;48.818;2.322;2022-08-19T13:10:33;4.18;;;1.52;;
21999;SDS011;11164;48.818;2.322;2022-08-19T13:13:00;4.40;;;1.45;;
21999;SDS011;11164;48.818;2.322;2022-08-19T13:15:29;3.47;;;1.60;;
21999;SDS011;11164;48.818;2.322;2022-08-19T13:17:58;5.55;;;1.50;;
21999;SDS011;11164;48.818;2.322;2022-08-19T13:20:24;5.80;;;1.75;;
21999;SDS011;11164;48.818;2.322;2022-08-19T13:22:51;4.80;;;1.95;;
21999;SDS011;11164;48.818;2.322;2022-08-19T13:25:17;3.13;;;1.50;;
21999;SDS011;11164;48.818;2.322;2022-08-19T13:27:44;2.90;;;1.30;;
21999;SDS011;11164;48.818;2.322;2022-08-19T13:30:11;3.28;;;1.50;;
21999;SDS011;11164;48.818;2.322;2022-08-19T13:32:56;4.85;;;1.70;;
21999;SDS011;11164;48.818;2.322;2022-08-19T13:35:51;4.53;;;1.60;;
21999;SDS011;11164;48.818;2.322;2022-08-19T13:38:22;3.13;;;1.35;;
21999;SDS011;11164;48.818;2.322;2022-08-19T13:40:48;4.82;;;2.38;;
21999;SDS011;11164;48.818;2.322;2022-08-19T13:43:17;3.78;;;1.70;;
21999;SDS011;11164;48.818;2.322;2022-08-19T13:45:44;4.47;;;1.45;;
21999;SDS011;11164;48.818;2.322;2022-08-19T13:48:09;4.40;;;1.27;;
21999;SDS011;11164;48.818;2.322;2022-08-19T13:50:40;3.28;;;1.40;;
21999;SDS011;11164;48.818;2.322;2022-08-19T13:53:08;4.15;;;1.27;;
21999;SDS011;11164;48.818;2.322;2022-08-19T13:55:36;3.88;;;1.48;;
21999;SDS011;11164;48.818;2.322;2022-08-19T13:58:05;2.97;;;1.45;;
21999;SDS011;11164;48.818;2.322;2022-08-19T14:00:32;5.50;;;1.85;;
21999;SDS011;11164;48.818;2.322;2022-08-19T14:03:00;4.78;;;1.50;;
21999;SDS011;11164;48.818;2.322;2022-08-19T14:05:27;6.68;;;1.70;;
21999;SDS011;11164;48.818;2.322;2022-08-19T14:07:53;5.15;;;1.30;;
21999;SDS011;11164;48.818;2.322;2022-08-19T14:10:20;8.77;;;2.05;;
21999;SDS011;11164;48.818;2.322;2022-08-19T14:12:47;15.52;;;2.70;;
21999;SDS011;11164;48.818;2.322;2022-08-19T14:15:13;36.00;;;4.95;;
21999;SDS011;11164;48.818;2.322;2022-08-19T14:17:40;7.50;;;1.80;;
21999;SDS011;11164;48.818;2.322;2022-08-19T14:20:08;5.63;;;1.50;;
21999;SDS011;11164;48.818;2.322;2022-08-19T14:22:36;18.92;;;3.17;;
21999;SDS011;11164;48.818;2.322;2022-08-19T14:25:03;8.73;;;2.30;;
21999;SDS011;11164;48.818;2.322;2022-08-19T14:27:29;3.40;;;1.35;;
21999;SDS011;11164;48.818;2.322;2022-08-19T14:29:55;4.38;;;1.50;;
21999;SDS011;11164;48.818;2.322;2022-08-19T14:32:21;2.65;;;1.10;;
21999;SDS011;11164;48.818;2.322;2022-08-19T14:34:46;5.15;;;1.73;;
21999;SDS011;11164;48.818;2.322;2022-08-19T14:37:12;3.22;;;1.30;;
21999;SDS011;11164;48.818;2.322;2022-08-19T14:39:40;3.78;;;1.30;;
21999;SDS011;11164;48.818;2.322;2022-08-19T14:42:06;2.83;;;1.20;;
21999;SDS011;11164;48.818;2.322;2022-08-19T14:44:33;8.52;;;1.83;;
21999;SDS011;11164;48.818;2.322;2022-08-19T14:46:59;3.67;;;1.10;;
21999;SDS011;11164;48.818;2.322;2022-08-19T14:49:24;4.28;;;1.20;;
21999;SDS011;11164;48.818;2.322;2022-08-19T14:51:50;4.57;;;1.50;;
21999;SDS011;11164;48.818;2.322;2022-08-19T14:54:15;3.60;;;1.60;;
21999;SDS011;11164;48.818;2.322;2022-08-19T14:56:41;4.82;;;1.40;;
21999;SDS011;11164;48.818;2.322;2022-08-19T14:59:06;3.28;;;1.30;;
21999;SDS011;11164;48.818;2.322;2022-08-19T15:01:31;4.70;;;1.30;;
21999;SDS011;11164;48.818;2.322;2022-08-19T15:03:57;3.97;;;1.58;;
21999;SDS011;11164;48.818;2.322;2022-08-19T15:06:23;3.83;;;1.15;;